createdAt,value
2023-10-15T00:01:38.044Z,100838.81
2023-10-15T00:03:39.996Z,100844.97
2023-10-15T00:05:44.375Z,100845.56
2023-10-15T00:07:47.189Z,100848.09
2023-10-15T00:09:49.040Z,100852.66
2023-10-15T00:11:50.804Z,100852.22
2023-10-15T00:13:54.414Z,100862.75
2023-10-15T00:15:56.069Z,100855.13
2023-10-15T00:18:00.879Z,100853.97
2023-10-15T00:20:02.703Z,100856.06
2023-10-15T00:22:04.388Z,100849.06
2023-10-15T00:24:06.935Z,100848.03
2023-10-15T00:26:08.800Z,100849.84
2023-10-15T00:28:10.608Z,100846.34
2023-10-15T00:30:14.691Z,100852.72
2023-10-15T00:32:16.292Z,100849.66
2023-10-15T00:34:18.001Z,100849.06
2023-10-15T00:36:19.806Z,100851.16
2023-10-15T00:38:21.775Z,100843.66
2023-10-15T00:40:25.299Z,100851.53
2023-10-15T00:42:27.124Z,100847.16
2023-10-15T00:44:28.850Z,100850.66
2023-10-15T00:46:32.960Z,100852.09
2023-10-15T00:48:34.971Z,100852.69
2023-10-15T00:50:38.716Z,100856.25
2023-10-15T00:52:40.586Z,100843.16
2023-10-15T00:54:42.414Z,100848.13
2023-10-15T00:56:45.991Z,100838.91
2023-10-15T00:58:48.039Z,100839.31
2023-10-15T01:00:50.333Z,100834.47
2023-10-15T01:02:56.070Z,100838.75
2023-10-15T01:04:58.126Z,100834.38
2023-10-15T01:06:59.825Z,100831.22
2023-10-15T01:09:02.586Z,100826.94
2023-10-15T01:11:12.518Z,100827.56
2023-10-15T01:13:14.471Z,100822.56
2023-10-15T01:15:16.729Z,100820.19
2023-10-15T01:17:18.626Z,100826.16
2023-10-15T01:19:22.330Z,100822.41
2023-10-15T01:21:24.253Z,100827.03
2023-10-15T01:23:25.895Z,100818.56
2023-10-15T01:25:29.355Z,100820.22
2023-10-15T01:27:31.413Z,100825.38
2023-10-15T01:29:36.304Z,100829.16
2023-10-15T01:31:38.002Z,100834.00
2023-10-15T01:33:39.928Z,100826.06
2023-10-15T01:35:42.694Z,100824.66
2023-10-15T01:37:44.497Z,100819.53
2023-10-15T01:39:46.143Z,100822.50
2023-10-15T01:41:49.581Z,100830.34
2023-10-15T01:43:51.297Z,100827.03
2023-10-15T01:45:53.933Z,100832.75
2023-10-15T01:47:55.933Z,100831.88
2023-10-15T01:49:57.733Z,100826.19
2023-10-15T01:51:59.652Z,100826.19
2023-10-15T01:54:01.472Z,100825.94
2023-10-15T01:56:03.526Z,100827.31
2023-10-15T01:58:07.048Z,100826.44
2023-10-15T02:00:11.086Z,100823.94
2023-10-15T02:02:13.464Z,100828.50
2023-10-15T02:04:16.775Z,100828.31
2023-10-15T02:06:18.588Z,100828.44
2023-10-15T02:08:20.229Z,100834.91
2023-10-15T02:10:21.965Z,100831.38
2023-10-15T02:12:23.626Z,100828.72
2023-10-15T02:14:26.886Z,100830.38
2023-10-15T02:16:28.519Z,100828.34
2023-10-15T02:18:30.222Z,100832.09
2023-10-15T02:20:31.854Z,100828.06
2023-10-15T02:22:33.563Z,100834.75
2023-10-15T02:24:35.481Z,100837.22
2023-10-15T02:26:37.091Z,100842.72
2023-10-15T02:28:38.729Z,100837.09
2023-10-15T02:30:45.593Z,100837.19
2023-10-15T02:32:47.317Z,100839.88
2023-10-15T02:34:50.057Z,100829.84
2023-10-15T02:36:52.086Z,100838.78
2023-10-15T02:38:55.278Z,100836.84
2023-10-15T02:40:57.023Z,100843.63
2023-10-15T02:42:58.995Z,100841.75
2023-10-15T02:45:02.537Z,100837.66
2023-10-15T02:47:06.181Z,100836.53
2023-10-15T02:49:07.841Z,100834.31
2023-10-15T02:51:09.572Z,100833.81
2023-10-15T02:53:11.315Z,100828.56
2023-10-15T02:55:13.406Z,100829.09
2023-10-15T02:57:15.627Z,100827.78
2023-10-15T02:59:17.450Z,100832.13
2023-10-15T03:01:19.868Z,100825.44
2023-10-15T03:03:23.047Z,100825.97
2023-10-15T03:05:25.076Z,100827.06
2023-10-15T03:07:26.873Z,100827.78
2023-10-15T03:09:29.630Z,100829.09
2023-10-15T03:11:31.275Z,100825.13
2023-10-15T03:13:32.999Z,100828.22
2023-10-15T03:15:37.810Z,100825.53
2023-10-15T03:17:39.563Z,100837.19
2023-10-15T03:19:43.632Z,100819.53
2023-10-15T03:21:45.779Z,100823.09
2023-10-15T03:23:48.059Z,100828.31
2023-10-15T03:25:58.030Z,100819.13
2023-10-15T03:27:59.730Z,100820.66
2023-10-15T03:30:01.632Z,100813.88
2023-10-15T03:32:03.913Z,100812.78
2023-10-15T03:34:05.935Z,100812.53
2023-10-15T03:36:11.031Z,100818.56
2023-10-15T03:38:12.716Z,100827.25
2023-10-15T03:40:15.627Z,100822.06
2023-10-15T03:42:19.782Z,100819.38
2023-10-15T03:44:22.392Z,100819.66
2023-10-15T03:46:24.343Z,100817.19
2023-10-15T03:48:26.274Z,100814.22
2023-10-15T03:50:28.130Z,100813.06
2023-10-15T03:52:31.147Z,100817.09
2023-10-15T03:54:32.775Z,100823.66
2023-10-15T03:56:34.698Z,100825.81
2023-10-15T03:58:36.272Z,100827.34
2023-10-15T04:00:37.885Z,100823.59
2023-10-15T04:02:41.805Z,100824.13
2023-10-15T04:04:47.878Z,100827.13
2023-10-15T04:06:49.627Z,100823.59
2023-10-15T04:08:52.702Z,100831.16
2023-10-15T04:10:55.119Z,100826.59
2023-10-15T04:12:57.319Z,100833.38
2023-10-15T04:14:59.259Z,100831.22
2023-10-15T04:17:01.286Z,100836.63
2023-10-15T04:19:04.542Z,100835.38
2023-10-15T04:21:07.720Z,100832.88
2023-10-15T04:23:09.651Z,100831.53
2023-10-15T04:25:14.477Z,100833.94
2023-10-15T04:27:16.066Z,100831.53
2023-10-15T04:29:17.978Z,100833.75
2023-10-15T04:31:19.992Z,100820.84
2023-10-15T04:33:22.931Z,100830.66
2023-10-15T04:35:24.790Z,100837.44
2023-10-15T04:37:26.463Z,100837.44
2023-10-15T04:39:50.412Z,100838.22
2023-10-15T04:41:51.154Z,100838.78
2023-10-15T04:43:52.956Z,100837.44
2023-10-15T04:45:55.704Z,100839.63
2023-10-15T04:47:57.603Z,100835.56
2023-10-15T04:49:59.271Z,100841.50
2023-10-15T04:52:00.919Z,100840.66
2023-10-15T04:54:02.688Z,100846.88
2023-10-15T04:56:04.755Z,100844.94
2023-10-15T04:58:08.208Z,100847.31
2023-10-15T05:00:12.710Z,100847.03
2023-10-15T05:02:14.543Z,100846.22
2023-10-15T05:04:16.462Z,100840.56
2023-10-15T05:06:18.163Z,100845.19
2023-10-15T05:08:20.048Z,100852.16
2023-10-15T05:10:22.706Z,100850.28
2023-10-15T05:12:26.835Z,100854.16
2023-10-15T05:14:31.258Z,100848.28
2023-10-15T05:16:34.341Z,100848.34
2023-10-15T05:18:36.185Z,100854.59
2023-10-15T05:20:38.838Z,100850.31
2023-10-15T05:22:40.640Z,100852.47
2023-10-15T05:24:42.395Z,100853.47
2023-10-15T05:26:45.450Z,100852.41
2023-10-15T05:28:47.042Z,100854.28
2023-10-15T05:30:51.049Z,100857.53
2023-10-15T05:32:52.720Z,100861.31
2023-10-15T05:34:54.486Z,100864.06
2023-10-15T05:36:56.161Z,100856.22
2023-10-15T05:38:57.904Z,100868.41
2023-10-15T05:40:59.709Z,100859.19
2023-10-15T05:43:01.459Z,100859.44
2023-10-15T05:45:03.680Z,100865.09
2023-10-15T05:47:06.705Z,100865.91
2023-10-15T05:49:08.657Z,100866.19
2023-10-15T05:51:10.497Z,100860.25
2023-10-15T05:53:14.376Z,100864.03
2023-10-15T05:55:16.178Z,100869.69
2023-10-15T05:57:18.125Z,100874.00
2023-10-15T05:59:20.111Z,100863.16
2023-10-15T06:01:21.859Z,100874.50
2023-10-15T06:03:25.182Z,100873.94
2023-10-15T06:05:26.891Z,100875.28
2023-10-15T06:07:29.709Z,100875.56
2023-10-15T06:09:31.739Z,100880.41
2023-10-15T06:11:33.410Z,100882.88
2023-10-15T06:13:37.694Z,100886.66
2023-10-15T06:15:39.340Z,100883.97
2023-10-15T06:17:41.220Z,100884.56
2023-10-15T06:19:44.745Z,100885.66
2023-10-15T06:21:46.380Z,100889.19
2023-10-15T06:23:48.019Z,100885.16
2023-10-15T06:25:49.715Z,100891.16
2023-10-15T06:27:51.546Z,100895.53
2023-10-15T06:29:53.498Z,100895.25
2023-10-15T06:31:55.185Z,100897.44
2023-10-15T06:33:56.938Z,100910.94
2023-10-15T06:36:01.451Z,100907.16
2023-10-15T06:38:03.437Z,100909.03
2023-10-15T06:40:19.009Z,100907.41
2023-10-15T06:42:22.852Z,100911.69
2023-10-15T06:44:24.711Z,100916.00
2023-10-15T06:46:26.818Z,100905.16
2023-10-15T06:48:28.554Z,100905.44
2023-10-15T06:50:30.636Z,100906.78
2023-10-15T06:52:36.869Z,100912.13
2023-10-15T06:54:38.837Z,100914.81
2023-10-15T06:56:41.376Z,100907.28
2023-10-15T06:58:43.377Z,100911.56
2023-10-15T07:00:45.117Z,100919.41
2023-10-15T07:02:46.966Z,100919.94
2023-10-15T07:04:48.821Z,100917.75
2023-10-15T07:06:50.482Z,100918.78
2023-10-15T07:08:53.581Z,100916.56
2023-10-15T07:10:55.242Z,100917.94
2023-10-15T07:12:57.024Z,100918.72
2023-10-15T07:14:58.864Z,100925.22
2023-10-15T07:17:00.507Z,100925.03
2023-10-15T07:19:02.291Z,100924.81
2023-10-15T07:21:04.081Z,100922.59
2023-10-15T07:23:05.916Z,100921.25
2023-10-15T07:25:09.548Z,100922.56
2023-10-15T07:27:11.228Z,100918.72
2023-10-15T07:29:13.395Z,100930.31
2023-10-15T07:31:15.076Z,100925.44
2023-10-15T07:33:16.783Z,100928.06
2023-10-15T07:35:18.548Z,100923.94
2023-10-15T07:37:20.410Z,100926.25
2023-10-15T07:39:23.058Z,100928.03
2023-10-15T07:41:29.879Z,100926.47
2023-10-15T07:43:31.572Z,100929.78
2023-10-15T07:45:34.131Z,100928.41
2023-10-15T07:47:36.034Z,100940.84
2023-10-15T07:49:37.877Z,100941.72
2023-10-15T07:51:39.912Z,100939.81
2023-10-15T07:53:41.667Z,100941.97
2023-10-15T07:55:43.326Z,100945.75
2023-10-15T07:57:46.636Z,100937.81
2023-10-15T07:59:48.251Z,100938.72
2023-10-15T08:01:49.884Z,100933.69
2023-10-15T08:03:52.337Z,100937.31
2023-10-15T08:05:54.562Z,100939.78
2023-10-15T08:07:56.418Z,100936.25
2023-10-15T08:09:58.405Z,100942.84
2023-10-15T08:12:00.141Z,100940.94
2023-10-15T08:14:03.459Z,100936.94
2023-10-15T08:16:05.725Z,100933.28
2023-10-15T08:18:07.456Z,100938.63
2023-10-15T08:20:09.681Z,100937.44
2023-10-15T08:22:11.372Z,100944.78
2023-10-15T08:24:13.008Z,100938.19
2023-10-15T08:26:14.740Z,100936.97
2023-10-15T08:28:16.424Z,100937.09
2023-10-15T08:30:20.072Z,100938.63
2023-10-15T08:32:22.059Z,100947.41
2023-10-15T08:34:23.940Z,100943.38
2023-10-15T08:36:25.921Z,100938.06
2023-10-15T08:38:27.577Z,100940.66
2023-10-15T08:40:32.690Z,100942.31
2023-10-15T08:42:38.826Z,100943.59
2023-10-15T08:44:40.950Z,100936.53
2023-10-15T08:46:44.830Z,100933.81
2023-10-15T08:48:48.258Z,100936.66
2023-10-15T08:50:50.306Z,100942.88
2023-10-15T08:52:52.609Z,100950.94
2023-10-15T08:54:55.046Z,100947.28
2023-10-15T08:56:58.478Z,100949.91
2023-10-15T08:59:00.707Z,100947.75
2023-10-15T09:01:05.488Z,100958.06
2023-10-15T09:03:08.614Z,100960.63
2023-10-15T09:05:11.506Z,100964.34
2023-10-15T09:07:14.758Z,100970.94
2023-10-15T09:09:16.574Z,100971.31
2023-10-15T09:11:18.580Z,100968.72
2023-10-15T09:13:20.503Z,100968.09
2023-10-15T09:15:22.191Z,100969.69
2023-10-15T09:17:23.931Z,100967.25
2023-10-15T09:19:26.939Z,100972.56
2023-10-15T09:21:30.529Z,100967.25
2023-10-15T09:23:33.080Z,100972.53
2023-10-15T09:25:34.700Z,100969.81
2023-10-15T09:27:47.067Z,100968.72
2023-10-15T09:29:48.817Z,100970.31
2023-10-15T09:31:50.695Z,100972.25
2023-10-15T09:33:52.549Z,100973.84
2023-10-15T09:35:55.586Z,100976.59
2023-10-15T09:37:57.407Z,100978.69
2023-10-15T09:39:59.492Z,100975.16
2023-10-15T09:42:02.375Z,100974.63
2023-10-15T09:44:05.196Z,100972.06
2023-10-15T09:46:08.029Z,100971.44
2023-10-15T09:48:10.427Z,100983.00
2023-10-15T09:50:12.220Z,100973.00
2023-10-15T09:52:16.530Z,100967.59
2023-10-15T09:54:20.326Z,100973.66
2023-10-15T09:56:24.003Z,100970.13
2023-10-15T09:58:27.676Z,100966.03
2023-10-15T10:00:34.691Z,100962.69
2023-10-15T10:02:48.557Z,100968.28
2023-10-15T10:05:05.414Z,100960.19
2023-10-15T10:07:26.223Z,100968.75
2023-10-15T10:09:48.279Z,100961.88
2023-10-15T10:12:00.303Z,100968.16
2023-10-15T10:14:23.464Z,100965.75
2023-10-15T10:16:28.178Z,100966.78
2023-10-15T10:18:31.955Z,100962.63
2023-10-15T10:20:36.813Z,100965.69
2023-10-15T10:22:43.230Z,100967.59
2023-10-15T10:24:47.284Z,100962.28
2023-10-15T10:26:53.386Z,100962.88
2023-10-15T10:28:55.177Z,100967.06
2023-10-15T10:30:58.244Z,100972.19
2023-10-15T10:33:02.791Z,100962.69
2023-10-15T10:35:15.078Z,100971.59
2023-10-15T10:37:23.570Z,100974.31
2023-10-15T10:39:43.330Z,100977.69
2023-10-15T10:41:46.507Z,100969.47
2023-10-15T10:43:49.771Z,100980.50
2023-10-15T10:45:57.144Z,100982.47
2023-10-15T10:47:59.064Z,100985.31
2023-10-15T10:50:01.686Z,100986.19
2023-10-15T10:52:07.898Z,100974.91
2023-10-15T10:54:27.693Z,100967.16
2023-10-15T10:56:57.125Z,100969.53
2023-10-15T10:58:59.322Z,100970.75
2023-10-15T11:01:01.625Z,100968.00
2023-10-15T11:03:03.893Z,100966.66
2023-10-15T11:05:06.455Z,100960.38
2023-10-15T11:07:10.097Z,100958.56
2023-10-15T11:09:13.313Z,100955.75
2023-10-15T11:11:16.579Z,100959.84
2023-10-15T11:13:18.384Z,100948.72
2023-10-15T11:15:20.001Z,100949.34
2023-10-15T11:17:22.063Z,100947.00
2023-10-15T11:19:25.719Z,100947.81
2023-10-15T11:21:27.340Z,100950.03
2023-10-15T11:23:29.338Z,100959.53
2023-10-15T11:25:31.344Z,100957.84
2023-10-15T11:27:34.508Z,100957.13
2023-10-15T11:29:36.396Z,100947.63
2023-10-15T11:31:38.158Z,100955.91
2023-10-15T11:33:40.575Z,100955.69
2023-10-15T11:35:42.416Z,100959.41
2023-10-15T11:37:44.393Z,100956.41
2023-10-15T11:39:46.097Z,100962.22
2023-10-15T11:41:51.869Z,100958.06
2023-10-15T11:43:55.014Z,100954.53
2023-10-15T11:45:56.737Z,100953.66
2023-10-15T11:47:58.981Z,100955.72
2023-10-15T11:50:00.797Z,100956.03
2023-10-15T11:52:04.529Z,100959.09
2023-10-15T11:54:06.568Z,100962.25
2023-10-15T11:56:14.057Z,100962.09
2023-10-15T11:58:15.701Z,100965.47
2023-10-15T12:00:21.085Z,100966.25
2023-10-15T12:02:22.667Z,100963.56
2023-10-15T12:04:24.552Z,100963.31
2023-10-15T12:06:26.587Z,100963.22
2023-10-15T12:08:28.235Z,100956.56
2023-10-15T12:10:30.572Z,100966.28
2023-10-15T12:12:32.263Z,100959.50
2023-10-15T12:14:34.016Z,100963.22
2023-10-15T12:16:37.211Z,100961.75
2023-10-15T12:18:39.002Z,100963.13
2023-10-15T12:20:40.725Z,100965.97
2023-10-15T12:22:42.398Z,100975.56
2023-10-15T12:24:44.199Z,100972.53
2023-10-15T12:26:47.536Z,100972.59
2023-10-15T12:28:50.674Z,100962.59
2023-10-15T12:30:52.527Z,100972.50
2023-10-15T12:32:56.522Z,100965.25
2023-10-15T12:34:58.271Z,100968.56
2023-10-15T12:36:59.893Z,100967.91
2023-10-15T12:39:01.516Z,100957.78
2023-10-15T12:41:03.543Z,100959.34
2023-10-15T12:43:05.849Z,100960.66
2023-10-15T12:45:08.453Z,100965.81
2023-10-15T12:47:10.198Z,100965.84
2023-10-15T12:49:13.287Z,100966.25
2023-10-15T12:51:15.324Z,100972.44
2023-10-15T12:53:17.138Z,100971.66
2023-10-15T12:55:18.967Z,100970.63
2023-10-15T12:57:20.578Z,100972.19
2023-10-15T12:59:22.395Z,100966.78
2023-10-15T13:01:24.166Z,100969.66
2023-10-15T13:03:25.802Z,100978.91
2023-10-15T13:05:28.977Z,100997.19
2023-10-15T13:07:30.784Z,100997.97
2023-10-15T13:09:32.477Z,101007.44
2023-10-15T13:11:34.232Z,101014.03
2023-10-15T13:13:35.949Z,101015.25
2023-10-15T13:15:37.662Z,101025.16
2023-10-15T13:17:39.343Z,101018.47
2023-10-15T13:19:41.370Z,101022.22
2023-10-15T13:21:44.463Z,101033.16
2023-10-15T13:23:46.019Z,101032.50
2023-10-15T13:25:47.747Z,101035.00
2023-10-15T13:27:49.478Z,101029.91
2023-10-15T13:29:51.127Z,101034.84
2023-10-15T13:31:52.885Z,101037.34
2023-10-15T13:33:54.516Z,101036.03
2023-10-15T13:35:56.171Z,101027.09
2023-10-15T13:37:59.214Z,101035.63
2023-10-15T13:40:00.996Z,101048.06
2023-10-15T13:42:02.892Z,101043.09
2023-10-15T13:44:04.989Z,101050.44
2023-10-15T13:46:06.560Z,101051.78
2023-10-15T13:48:08.451Z,101043.38
2023-10-15T13:50:11.453Z,101048.56
2023-10-15T13:52:13.114Z,101045.50
2023-10-15T13:54:16.224Z,101048.09
2023-10-15T13:56:17.977Z,101051.78
2023-10-15T13:58:19.862Z,101049.44
2023-10-15T14:00:21.864Z,101056.81
2023-10-15T14:02:24.058Z,101056.34
2023-10-15T14:04:26.271Z,101059.31
2023-10-15T14:06:28.244Z,101059.91
2023-10-15T14:08:29.968Z,101058.63
2023-10-15T14:10:33.080Z,101060.88
2023-10-15T14:12:34.698Z,101055.63
2023-10-15T14:14:36.577Z,101060.44
2023-10-15T14:16:38.294Z,101056.81
2023-10-15T14:18:40.306Z,101054.88
2023-10-15T14:20:42.088Z,101054.53
2023-10-15T14:22:44.403Z,101058.28
2023-10-15T14:24:46.039Z,101053.47
2023-10-15T14:26:49.112Z,101064.09
2023-10-15T14:28:50.785Z,101059.03
2023-10-15T14:30:52.434Z,101065.13
2023-10-15T14:32:54.375Z,101061.81
2023-10-15T14:34:56.448Z,101061.34
2023-10-15T14:36:58.030Z,101066.03
2023-10-15T14:38:59.929Z,101065.41
2023-10-15T14:41:01.663Z,101062.81
2023-10-15T14:43:04.810Z,101065.66
2023-10-15T14:45:08.248Z,101072.66
2023-10-15T14:47:10.002Z,101069.09
2023-10-15T14:49:11.708Z,101074.84
2023-10-15T14:51:13.375Z,101071.00
2023-10-15T14:53:14.988Z,101078.38
2023-10-15T14:55:16.816Z,101083.88
2023-10-15T14:57:19.225Z,101082.50
2023-10-15T14:59:22.512Z,101082.19
2023-10-15T15:01:24.249Z,101082.50
2023-10-15T15:03:26.054Z,101080.44
2023-10-15T15:05:27.834Z,101085.22
2023-10-15T15:07:29.492Z,101090.91
2023-10-15T15:09:31.349Z,101089.84
2023-10-15T15:11:33.051Z,101091.09
2023-10-15T15:13:34.671Z,101094.06
2023-10-15T15:15:42.480Z,101092.50
2023-10-15T15:17:46.777Z,101090.31
2023-10-15T15:19:48.335Z,101095.00
2023-10-15T15:21:49.961Z,101091.69
2023-10-15T15:23:51.531Z,101094.72
2023-10-15T15:25:53.191Z,101095.03
2023-10-15T15:27:54.919Z,101104.66
2023-10-15T15:29:56.571Z,101101.09
2023-10-15T15:31:59.794Z,101100.25
2023-10-15T15:34:01.626Z,101101.09
2023-10-15T15:36:03.750Z,101103.34
2023-10-15T15:38:05.445Z,101105.56
2023-10-15T15:40:08.977Z,101105.16
2023-10-15T15:42:10.693Z,101107.72
2023-10-15T15:44:12.914Z,101108.06
2023-10-15T15:46:14.617Z,101108.03
2023-10-15T15:48:17.881Z,101114.75
2023-10-15T15:50:19.799Z,101111.94
2023-10-15T15:52:21.758Z,101113.38
2023-10-15T15:54:23.505Z,101105.84
2023-10-15T15:56:25.779Z,101109.53
2023-10-15T15:58:27.636Z,101108.41
2023-10-15T16:00:29.319Z,101116.44
2023-10-15T16:02:31.180Z,101113.25
2023-10-15T16:04:34.324Z,101104.22
2023-10-15T16:06:36.485Z,101111.59
2023-10-15T16:08:38.147Z,101114.94
2023-10-15T16:10:39.798Z,101117.34
2023-10-15T16:12:41.605Z,101123.75
2023-10-15T16:14:43.468Z,101126.91
2023-10-15T16:16:45.241Z,101128.97
2023-10-15T16:18:46.950Z,101132.97
2023-10-15T16:20:51.279Z,101137.16
2023-10-15T16:22:53.054Z,101135.69
2023-10-15T16:25:04.131Z,101146.94
2023-10-15T16:27:07.849Z,101152.56
2023-10-15T16:29:09.645Z,101162.91
2023-10-15T16:31:11.246Z,101171.94
2023-10-15T16:33:12.997Z,101178.97
2023-10-15T16:35:14.932Z,101176.66
2023-10-15T16:37:18.210Z,101183.94
2023-10-15T16:39:19.852Z,101189.22
2023-10-15T16:41:21.876Z,101182.44
2023-10-15T16:43:23.703Z,101187.69
2023-10-15T16:45:25.631Z,101186.25
2023-10-15T16:47:27.596Z,101186.16
2023-10-15T16:49:29.304Z,101189.50
2023-10-15T16:51:30.946Z,101194.94
2023-10-15T16:53:34.368Z,101190.91
2023-10-15T16:55:36.606Z,101202.41
2023-10-15T16:57:38.249Z,101202.91
2023-10-15T16:59:39.982Z,101216.84
2023-10-15T17:01:42.338Z,101208.88
2023-10-15T17:03:44.110Z,101210.44
2023-10-15T17:05:45.956Z,101220.31
2023-10-15T17:07:47.739Z,101223.72
2023-10-15T17:09:51.163Z,101224.69
2023-10-15T17:11:52.950Z,101223.47
2023-10-15T17:13:54.825Z,101232.16
2023-10-15T17:15:56.422Z,101235.06
2023-10-15T17:17:58.087Z,101232.25
2023-10-15T17:19:59.745Z,101237.03
2023-10-15T17:22:01.488Z,101238.84
2023-10-15T17:24:03.932Z,101244.38
2023-10-15T17:26:07.109Z,101245.69
2023-10-15T17:28:08.921Z,101249.97
2023-10-15T17:32:16.095Z,101249.50
2023-10-15T17:34:17.765Z,101245.38
2023-10-15T17:36:19.411Z,101245.47
2023-10-15T17:38:21.068Z,101245.69
2023-10-15T17:40:22.817Z,101244.56
2023-10-15T17:42:25.928Z,101254.59
2023-10-15T17:44:27.824Z,101258.50
2023-10-15T17:46:29.786Z,101260.66
2023-10-15T17:48:31.659Z,101260.13
2023-10-15T17:50:34.299Z,101263.19
2023-10-15T17:52:36.828Z,101267.88
2023-10-15T17:54:38.572Z,101268.84
2023-10-15T17:56:40.325Z,101269.16
2023-10-15T17:58:43.629Z,101270.81
2023-10-15T18:00:45.801Z,101259.72
2023-10-15T18:02:49.969Z,101273.06
2023-10-15T18:04:51.774Z,101268.72
2023-10-15T18:06:53.479Z,101277.47
2023-10-15T18:08:55.272Z,101275.63
2023-10-15T18:10:57.125Z,101276.22
2023-10-15T18:12:58.991Z,101283.72
2023-10-15T18:15:02.189Z,101284.63
2023-10-15T18:17:03.956Z,101292.56
2023-10-15T18:19:06.103Z,101288.53
2023-10-15T18:21:08.248Z,101297.38
2023-10-15T18:23:10.141Z,101291.66
2023-10-15T18:25:11.936Z,101281.19
2023-10-15T18:27:13.728Z,101278.22
2023-10-15T18:29:15.387Z,101281.25
2023-10-15T18:31:18.720Z,101289.69
2023-10-15T18:33:20.546Z,101289.44
2023-10-15T18:35:23.896Z,101298.72
2023-10-15T18:37:28.188Z,101310.34
2023-10-15T18:39:29.825Z,101314.44
2023-10-15T18:41:32.525Z,101324.97
2023-10-15T18:43:34.187Z,101319.59
2023-10-15T18:45:35.857Z,101319.28
2023-10-15T18:47:39.512Z,101317.47
2023-10-15T18:49:41.318Z,101312.84
2023-10-15T18:51:43.013Z,101299.56
2023-10-15T18:53:45.037Z,101307.41
2023-10-15T18:55:46.746Z,101309.84
2023-10-15T18:57:48.446Z,101303.91
2023-10-15T18:59:50.289Z,101317.75
2023-10-15T19:01:52.262Z,101323.38
2023-10-15T19:03:55.470Z,101323.34
2023-10-15T19:05:57.575Z,101323.84
2023-10-15T19:07:59.300Z,101321.94
2023-10-15T19:10:03.311Z,101324.06
2023-10-15T19:12:05.440Z,101315.09
2023-10-15T19:14:07.598Z,101314.53
2023-10-15T19:16:09.629Z,101310.97
2023-10-15T19:18:12.025Z,101319.59
2023-10-15T19:20:15.435Z,101316.63
2023-10-15T19:22:17.498Z,101335.06
2023-10-15T19:24:19.481Z,101338.31
2023-10-15T19:26:21.440Z,101351.88
2023-10-15T19:28:23.221Z,101343.50
2023-10-15T19:30:24.888Z,101348.91
2023-10-15T19:32:26.768Z,101343.75
2023-10-15T19:34:28.626Z,101338.09
2023-10-15T19:36:31.848Z,101332.41
2023-10-15T19:38:33.641Z,101336.75
2023-10-15T19:40:35.331Z,101340.00
2023-10-15T19:42:38.115Z,101346.81
2023-10-15T19:44:40.031Z,101354.44
2023-10-15T19:46:41.733Z,101356.91
2023-10-15T19:48:43.460Z,101355.00
2023-10-15T19:50:45.831Z,101360.16
2023-10-15T19:52:49.030Z,101356.91
2023-10-15T19:54:50.738Z,101343.91
2023-10-15T19:56:53.813Z,101344.72
2023-10-15T19:58:57.636Z,101340.63
2023-10-15T20:00:59.388Z,101343.91
2023-10-15T20:03:01.186Z,101346.34
2023-10-15T20:05:03.203Z,101360.66
2023-10-15T20:07:05.700Z,101359.63
2023-10-15T20:09:09.027Z,101364.50
2023-10-15T20:11:10.684Z,101353.66
2023-10-15T20:13:12.708Z,101356.38
2023-10-15T20:15:14.664Z,101350.16
2023-10-15T20:17:16.559Z,101345.25
2023-10-15T20:19:18.223Z,101345.00
2023-10-15T20:21:20.222Z,101336.88
2023-10-15T20:23:22.064Z,101341.47
2023-10-15T20:25:25.107Z,101347.69
2023-10-15T20:27:26.941Z,101354.47
2023-10-15T20:29:28.759Z,101356.38
2023-10-15T20:31:30.656Z,101360.44
2023-10-15T20:33:32.526Z,101362.91
2023-10-15T20:35:34.237Z,101357.50
2023-10-15T20:37:35.825Z,101355.59
2023-10-15T20:39:37.619Z,101348.84
2023-10-15T20:41:40.935Z,101362.94
2023-10-15T20:43:43.089Z,101366.75
2023-10-15T20:45:45.695Z,101370.28
2023-10-15T20:47:49.619Z,101379.50
2023-10-15T20:49:51.305Z,101374.63
2023-10-15T20:51:52.944Z,101381.13
2023-10-15T20:53:54.589Z,101376.25
2023-10-15T20:55:56.384Z,101368.41
2023-10-15T20:57:59.704Z,101374.59
2023-10-15T21:00:01.881Z,101378.41
2023-10-15T21:02:03.625Z,101378.66
2023-10-15T21:04:05.374Z,101386.50
2023-10-15T21:06:07.002Z,101383.28
2023-10-15T21:08:09.126Z,101382.19
2023-10-15T21:10:12.609Z,101384.63
2023-10-15T21:12:14.494Z,101373.56
2023-10-15T21:14:17.611Z,101380.56
2023-10-15T21:16:19.333Z,101384.63
2023-10-15T21:18:21.001Z,101381.91
2023-10-15T21:20:22.780Z,101379.22
2023-10-15T21:22:24.571Z,101384.09
2023-10-15T21:24:26.487Z,101380.28
2023-10-15T21:26:28.358Z,101379.22
2023-10-15T21:28:29.958Z,101377.59
2023-10-15T21:30:33.434Z,101380.59
2023-10-15T21:32:35.875Z,101377.06
2023-10-15T21:34:37.560Z,101372.19
2023-10-15T21:36:39.253Z,101377.06
2023-10-15T21:38:40.918Z,101375.69
2023-10-15T21:40:42.615Z,101375.19
2023-10-15T21:42:44.451Z,101371.09
2023-10-15T21:44:46.212Z,101374.09
2023-10-15T21:46:49.273Z,101372.19
2023-10-15T21:48:50.994Z,101366.50
2023-10-15T21:50:52.680Z,101362.16
2023-10-15T21:52:54.315Z,101366.22
2023-10-15T21:54:56.022Z,101368.38
2023-10-15T21:56:57.816Z,101378.66
2023-10-15T21:58:59.585Z,101363.00
2023-10-15T22:01:01.326Z,101368.41
2023-10-15T22:03:05.253Z,101362.44
2023-10-15T22:05:07.404Z,101357.28
2023-10-15T22:07:10.684Z,101362.97
2023-10-15T22:09:12.391Z,101364.34
2023-10-15T22:11:14.681Z,101373.25
2023-10-15T22:13:16.314Z,101373.72
2023-10-15T22:15:18.175Z,101369.94
2023-10-15T22:17:19.794Z,101356.41
2023-10-15T22:19:22.848Z,101353.72
2023-10-15T22:21:24.779Z,101356.41
2023-10-15T22:23:26.466Z,101365.28
2023-10-15T22:25:28.111Z,101373.38
2023-10-15T22:27:29.758Z,101370.38
2023-10-15T22:29:40.936Z,101370.88
2023-10-15T22:31:44.468Z,101361.16
2023-10-15T22:33:46.049Z,101359.00
2023-10-15T22:35:49.097Z,101350.91
2023-10-15T22:37:50.819Z,101354.13
2023-10-15T22:39:52.500Z,101356.28
2023-10-15T22:41:54.264Z,101358.94
2023-10-15T22:43:55.839Z,101351.66
2023-10-15T22:45:57.469Z,101362.19
2023-10-15T22:47:59.254Z,101358.41
2023-10-15T22:50:00.920Z,101367.31
2023-10-15T22:52:04.229Z,101363.00
2023-10-15T22:54:06.040Z,101360.84
2023-10-15T22:56:07.661Z,101359.44
2023-10-15T22:58:09.587Z,101355.66
2023-10-15T23:00:12.309Z,101358.88
2023-10-15T23:02:13.990Z,101358.31
2023-10-15T23:04:15.669Z,101355.59
2023-10-15T23:06:17.536Z,101345.06
2023-10-15T23:08:20.684Z,101349.63
2023-10-15T23:10:22.663Z,101351.00
2023-10-15T23:12:24.473Z,101343.72
2023-10-15T23:14:26.288Z,101341.00
2023-10-15T23:16:29.519Z,101345.31
2023-10-15T23:18:31.206Z,101346.09
2023-10-15T23:20:34.750Z,101345.28
2023-10-15T23:22:36.378Z,101346.38